Time;durP1;ratioP1;P1;durP2;ratioP2;P2;SDS_P1;SDS_P2;PMS_P1;PMS_P2;Temp;Humidity;BMP_temperature;BMP_pressure;BME280_temperature;BME280_humidity;BME280_pressure;Samples;Min_cycle;Max_cycle;Signal;HPM_P1;HPM_P2
2023/07/22 00:01:53;;;;;;;9.00;5.73;;;;;;;;;;5124878;27;20220;-79
2023/07/22 00:04:20;;;;;;;8.00;5.60;;;;;;;;;;5134653;27;20317;-80
2023/07/22 00:06:47;;;;;;;7.83;5.43;;;;;;;;;;5135160;27;20221;-80
2023/07/22 00:09:14;;;;;;;10.33;5.07;;;;;;;;;;5135109;27;20218;-79
2023/07/22 00:11:42;;;;;;;8.07;4.83;;;;;;;;;;5135390;27;20197;-79
2023/07/22 00:14:09;;;;;;;9.93;5.40;;;;;;;;;;5134966;27;20220;-80
2023/07/22 00:16:37;;;;;;;10.37;5.97;;;;;;;;;;5134948;27;20275;-80
2023/07/22 00:19:07;;;;;;;8.23;5.70;;;;;;;;;;5134793;27;20220;-80
2023/07/22 00:21:34;;;;;;;9.17;5.60;;;;;;;;;;5134383;27;20197;-79
2023/07/22 00:24:01;;;;;;;10.07;5.30;;;;;;;;;;5134768;27;20564;-80
2023/07/22 00:26:29;;;;;;;10.30;5.70;;;;;;;;;;5135356;27;20232;-78
2023/07/22 00:28:56;;;;;;;10.53;5.80;;;;;;;;;;5134702;27;20228;-80
2023/07/22 00:31:23;;;;;;;9.00;5.40;;;;;;;;;;5134432;27;20193;-80
2023/07/22 00:33:51;;;;;;;10.10;6.03;;;;;;;;;;5134337;27;20284;-80
2023/07/22 00:36:19;;;;;;;11.40;6.57;;;;;;;;;;5134651;27;20312;-79
2023/07/22 00:38:46;;;;;;;13.37;7.50;;;;;;;;;;5134641;27;20216;-80
2023/07/22 00:41:14;;;;;;;9.33;7.07;;;;;;;;;;5134291;27;20199;-80
2023/07/22 00:43:41;;;;;;;10.90;6.90;;;;;;;;;;5134187;27;20250;-79
2023/07/22 00:46:08;;;;;;;10.77;7.30;;;;;;;;;;5134084;27;20288;-80
2023/07/22 00:48:36;;;;;;;13.47;7.17;;;;;;;;;;5134031;27;20284;-80
2023/07/22 00:51:04;;;;;;;9.47;6.07;;;;;;;;;;5133811;27;20261;-80
2023/07/22 00:53:32;;;;;;;9.17;6.40;;;;;;;;;;5134082;27;20203;-80
2023/07/22 00:55:59;;;;;;;10.07;6.10;;;;;;;;;;5133900;27;20264;-79
2023/07/22 00:58:27;;;;;;;9.70;6.27;;;;;;;;;;5134817;27;20203;-79
2023/07/22 01:00:54;;;;;;;11.30;6.67;;;;;;;;;;5133988;27;20246;-80
2023/07/22 01:03:21;;;;;;;10.13;6.50;;;;;;;;;;5133518;27;20260;-79
2023/07/22 01:05:49;;;;;;;10.33;6.60;;;;;;;;;;5133822;27;20292;-80
2023/07/22 01:08:17;;;;;;;9.50;6.87;;;;;;;;;;5133772;27;20200;-80
2023/07/22 01:10:45;;;;;;;10.10;6.50;;;;;;;;;;5133962;27;20284;-79
2023/07/22 01:13:12;;;;;;;7.83;6.10;;;;;;;;;;5133848;27;20287;-79
2023/07/22 01:15:40;;;;;;;11.57;6.47;;;;;;;;;;5133429;27;20673;-80
2023/07/22 01:18:07;;;;;;;13.40;7.00;;;;;;;;;;5132787;27;20568;-78
2023/07/22 01:20:34;;;;;;;10.27;6.90;;;;;;;;;;5133587;27;20290;-80
2023/07/22 01:23:03;;;;;;;11.40;7.23;;;;;;;;;;5133199;27;20261;-79
2023/07/22 01:25:30;;;;;;;12.63;6.67;;;;;;;;;;5133061;27;20224;-80
2023/07/22 01:27:57;;;;;;;10.87;6.50;;;;;;;;;;5133861;27;20193;-79
2023/07/22 01:30:25;;;;;;;9.67;6.50;;;;;;;;;;5133744;27;20243;-80
2023/07/22 01:32:52;;;;;;;12.23;7.03;;;;;;;;;;5133386;27;20203;-78
2023/07/22 01:35:20;;;;;;;10.73;7.03;;;;;;;;;;5133433;27;20252;-79
2023/07/22 01:37:47;;;;;;;16.00;7.20;;;;;;;;;;5133430;27;20673;-80
2023/07/22 01:40:17;;;;;;;11.90;7.67;;;;;;;;;;5132470;27;20675;-79
2023/07/22 01:42:44;;;;;;;10.90;7.53;;;;;;;;;;5123909;27;20201;-79
2023/07/22 01:45:12;;;;;;;10.90;7.30;;;;;;;;;;5112274;28;20284;-78
2023/07/22 01:47:40;;;;;;;10.67;6.90;;;;;;;;;;5112654;28;20203;-79
2023/07/22 01:50:08;;;;;;;9.13;6.43;;;;;;;;;;5112056;28;20660;-78
2023/07/22 01:52:35;;;;;;;11.77;7.57;;;;;;;;;;5111869;28;20324;-80
2023/07/22 01:55:05;;;;;;;10.70;6.40;;;;;;;;;;5112506;28;20233;-80
2023/07/22 01:57:34;;;;;;;8.23;6.23;;;;;;;;;;5112469;28;20194;-80
2023/07/22 02:00:01;;;;;;;9.30;6.43;;;;;;;;;;5112043;28;20198;-79
2023/07/22 02:02:28;;;;;;;10.13;6.47;;;;;;;;;;5112386;28;20281;-80
2023/07/22 02:04:56;;;;;;;10.20;7.03;;;;;;;;;;5112240;28;20291;-80
2023/07/22 02:07:26;;;;;;;8.93;6.80;;;;;;;;;;5111741;28;20729;-79
2023/07/22 02:09:53;;;;;;;9.43;6.57;;;;;;;;;;5112260;28;20233;-80
2023/07/22 02:12:20;;;;;;;10.70;6.83;;;;;;;;;;5112015;28;20211;-79
2023/07/22 02:14:49;;;;;;;8.87;6.37;;;;;;;;;;5111648;28;20288;-80
2023/07/22 02:17:16;;;;;;;11.07;7.27;;;;;;;;;;5129861;27;20208;-79
2023/07/22 02:19:44;;;;;;;9.63;6.63;;;;;;;;;;5132481;27;20197;-79
2023/07/22 02:22:11;;;;;;;10.20;6.63;;;;;;;;;;5132659;27;20221;-79
2023/07/22 02:24:39;;;;;;;9.50;6.50;;;;;;;;;;5132626;27;20282;-79
2023/07/22 02:27:08;;;;;;;9.00;6.67;;;;;;;;;;5132318;27;20193;-79
2023/07/22 02:29:35;;;;;;;9.33;6.83;;;;;;;;;;5132118;27;20582;-79
2023/07/22 02:32:04;;;;;;;8.40;6.70;;;;;;;;;;5132265;27;20618;-79
2023/07/22 02:34:31;;;;;;;12.93;6.87;;;;;;;;;;5132645;27;20206;-79
2023/07/22 02:36:59;;;;;;;10.70;7.17;;;;;;;;;;5132274;27;20230;-79
2023/07/22 02:39:26;;;;;;;10.40;6.47;;;;;;;;;;5132232;28;20284;-79
2023/07/22 02:41:53;;;;;;;10.00;6.63;;;;;;;;;;5132314;28;20291;-79
2023/07/22 02:44:20;;;;;;;10.50;7.13;;;;;;;;;;5131794;28;20232;-79
2023/07/22 02:46:48;;;;;;;9.60;6.77;;;;;;;;;;5132058;27;20295;-79
2023/07/22 02:49:16;;;;;;;11.23;7.60;;;;;;;;;;5132120;27;20192;-80
2023/07/22 02:51:44;;;;;;;9.57;6.97;;;;;;;;;;5131700;28;20327;-79
2023/07/22 02:54:11;;;;;;;11.80;7.53;;;;;;;;;;5132139;28;20249;-79
2023/07/22 02:56:38;;;;;;;11.17;7.20;;;;;;;;;;5131982;28;20316;-80
2023/07/22 02:59:05;;;;;;;9.37;6.87;;;;;;;;;;5132055;28;20243;-79
2023/07/22 03:01:32;;;;;;;12.57;7.27;;;;;;;;;;5133588;27;20624;-79
2023/07/22 03:04:00;;;;;;;9.50;6.93;;;;;;;;;;5136031;27;20661;-79
2023/07/22 03:06:28;;;;;;;9.80;6.73;;;;;;;;;;5135797;27;20654;-79
2023/07/22 03:08:57;;;;;;;9.37;6.70;;;;;;;;;;5136199;27;20228;-80
2023/07/22 03:11:26;;;;;;;11.13;7.27;;;;;;;;;;5136082;27;20197;-80
2023/07/22 03:13:54;;;;;;;8.60;7.00;;;;;;;;;;5136075;27;20413;-79
2023/07/22 03:16:21;;;;;;;10.17;6.63;;;;;;;;;;5136069;27;20225;-79
2023/07/22 03:18:49;;;;;;;10.37;6.67;;;;;;;;;;5136092;27;20673;-79
2023/07/22 03:21:16;;;;;;;12.83;7.03;;;;;;;;;;5136084;27;20197;-79
2023/07/22 03:23:44;;;;;;;10.73;7.17;;;;;;;;;;5135667;27;20197;-79
2023/07/22 03:26:11;;;;;;;10.77;7.03;;;;;;;;;;5135965;27;20923;-79
2023/07/22 03:28:39;;;;;;;9.77;7.03;;;;;;;;;;5135275;27;20639;-79
2023/07/22 03:31:06;;;;;;;10.43;7.10;;;;;;;;;;5135982;27;20266;-80
2023/07/22 03:33:34;;;;;;;10.97;6.93;;;;;;;;;;5135805;27;20250;-79
2023/07/22 03:36:02;;;;;;;10.97;6.83;;;;;;;;;;5135460;27;20686;-79
2023/07/22 03:38:29;;;;;;;13.07;7.50;;;;;;;;;;5135986;27;20193;-79
2023/07/22 03:40:58;;;;;;;12.10;7.40;;;;;;;;;;5135450;27;20296;-78
2023/07/22 03:43:25;;;;;;;9.90;7.00;;;;;;;;;;5134773;27;20235;-78
2023/07/22 03:45:52;;;;;;;11.73;7.30;;;;;;;;;;5135354;27;20228;-80
2023/07/22 03:48:19;;;;;;;12.53;6.97;;;;;;;;;;5135455;27;20201;-79
2023/07/22 03:50:47;;;;;;;11.83;7.20;;;;;;;;;;5135193;27;20240;-78
2023/07/22 03:53:14;;;;;;;9.67;6.90;;;;;;;;;;5135670;27;20280;-79
2023/07/22 03:55:41;;;;;;;9.70;6.87;;;;;;;;;;5134806;27;20317;-79
2023/07/22 03:58:10;;;;;;;10.37;7.10;;;;;;;;;;5135316;27;20204;-79
2023/07/22 04:00:37;;;;;;;12.57;8.00;;;;;;;;;;5134910;27;20751;-79
2023/07/22 04:03:04;;;;;;;10.60;7.10;;;;;;;;;;5135022;27;20661;-79
2023/07/22 04:05:31;;;;;;;11.90;6.90;;;;;;;;;;5135156;27;20629;-79
2023/07/22 04:07:58;;;;;;;10.70;7.30;;;;;;;;;;5134808;27;20727;-78
2023/07/22 04:10:25;;;;;;;11.87;7.50;;;;;;;;;;5134343;27;20713;-79
2023/07/22 04:12:53;;;;;;;9.40;6.77;;;;;;;;;;5134893;27;20193;-79
2023/07/22 04:15:23;;;;;;;10.00;6.90;;;;;;;;;;5134829;27;20291;-80
2023/07/22 04:17:51;;;;;;;9.83;7.10;;;;;;;;;;5135048;27;20300;-79
2023/07/22 04:20:18;;;;;;;8.97;6.83;;;;;;;;;;5134621;27;20637;-79
2023/07/22 04:22:46;;;;;;;9.13;6.60;;;;;;;;;;5134497;27;20199;-78
2023/07/22 04:25:13;;;;;;;10.37;6.77;;;;;;;;;;5134958;27;20250;-78
2023/07/22 04:27:40;;;;;;;10.13;6.23;;;;;;;;;;5134792;27;20284;-79
2023/07/22 04:30:08;;;;;;;12.23;6.83;;;;;;;;;;5134753;27;20287;-79
2023/07/22 04:32:36;;;;;;;10.30;6.80;;;;;;;;;;5134765;27;20284;-79
2023/07/22 04:35:04;;;;;;;9.13;6.73;;;;;;;;;;5134676;27;20197;-78
2023/07/22 04:37:32;;;;;;;10.87;7.07;;;;;;;;;;5134536;27;20236;-78
2023/07/22 04:39:59;;;;;;;10.07;6.77;;;;;;;;;;5134246;27;20294;-79
2023/07/22 04:42:27;;;;;;;8.97;6.50;;;;;;;;;;5134726;27;20203;-79
2023/07/22 04:44:54;;;;;;;9.40;6.67;;;;;;;;;;5133856;27;20224;-79
2023/07/22 04:47:21;;;;;;;12.70;7.10;;;;;;;;;;5134507;27;20231;-79
2023/07/22 04:49:50;;;;;;;10.43;6.90;;;;;;;;;;5134499;27;20231;-79
2023/07/22 04:52:17;;;;;;;10.83;7.80;;;;;;;;;;5133998;27;20772;-79
2023/07/22 04:54:47;;;;;;;10.03;7.07;;;;;;;;;;5133889;27;20684;-79
2023/07/22 04:57:14;;;;;;;10.70;7.33;;;;;;;;;;5134054;27;20279;-79
2023/07/22 04:59:41;;;;;;;9.73;6.87;;;;;;;;;;5133977;27;20296;-80
2023/07/22 05:02:08;;;;;;;11.67;7.00;;;;;;;;;;5134035;27;20217;-79
2023/07/22 05:04:35;;;;;;;9.97;6.63;;;;;;;;;;5134020;27;20228;-79
2023/07/22 05:07:04;;;;;;;9.60;6.80;;;;;;;;;;5134157;27;20228;-79
2023/07/22 05:09:31;;;;;;;9.10;6.47;;;;;;;;;;5133690;27;20243;-79
2023/07/22 05:11:58;;;;;;;10.50;6.17;;;;;;;;;;5133869;27;20204;-79
2023/07/22 05:14:26;;;;;;;8.03;6.57;;;;;;;;;;5133755;27;20198;-79
2023/07/22 05:16:53;;;;;;;8.70;6.03;;;;;;;;;;5133464;27;20256;-79
2023/07/22 05:19:20;;;;;;;7.13;5.73;;;;;;;;;;5133655;27;20288;-79
2023/07/22 05:21:47;;;;;;;7.73;6.30;;;;;;;;;;5133636;27;20197;-79
2023/07/22 05:24:16;;;;;;;9.47;6.37;;;;;;;;;;5132433;27;20205;-78
2023/07/22 05:26:43;;;;;;;8.63;6.50;;;;;;;;;;5133076;27;20238;-79
2023/07/22 05:29:10;;;;;;;7.20;5.83;;;;;;;;;;5133451;27;20197;-79
2023/07/22 05:31:38;;;;;;;9.90;6.47;;;;;;;;;;5133872;27;20227;-79
2023/07/22 05:34:05;;;;;;;9.00;7.27;;;;;;;;;;5133344;27;20197;-80
2023/07/22 05:36:33;;;;;;;12.43;7.77;;;;;;;;;;5133386;27;20311;-79
2023/07/22 05:39:00;;;;;;;14.17;8.03;;;;;;;;;;5132922;27;20220;-79
2023/07/22 05:41:28;;;;;;;12.83;8.60;;;;;;;;;;5133208;27;20292;-79
2023/07/22 05:43:56;;;;;;;12.87;7.40;;;;;;;;;;5132993;27;20683;-79
2023/07/22 05:46:23;;;;;;;12.67;8.20;;;;;;;;;;5133600;27;20200;-79
2023/07/22 05:48:50;;;;;;;10.33;7.57;;;;;;;;;;5133030;27;20217;-79
2023/07/22 05:51:17;;;;;;;11.60;7.33;;;;;;;;;;5133124;27;20606;-80
2023/07/22 05:53:44;;;;;;;14.50;7.90;;;;;;;;;;5132603;27;20292;-79
2023/07/22 05:56:12;;;;;;;10.03;7.40;;;;;;;;;;5132921;27;20248;-79
2023/07/22 05:58:40;;;;;;;11.23;7.20;;;;;;;;;;5132949;27;20196;-79
2023/07/22 06:01:07;;;;;;;11.17;7.43;;;;;;;;;;5132923;27;20245;-80
2023/07/22 06:03:35;;;;;;;12.47;7.23;;;;;;;;;;5132770;27;20201;-79
2023/07/22 06:06:02;;;;;;;9.93;7.00;;;;;;;;;;5132818;27;20275;-80
2023/07/22 06:08:29;;;;;;;8.87;6.93;;;;;;;;;;5132767;27;20197;-79
2023/07/22 06:10:57;;;;;;;9.03;6.67;;;;;;;;;;5132491;27;20288;-79
2023/07/22 06:13:24;;;;;;;9.90;6.37;;;;;;;;;;5133303;27;20249;-80
2023/07/22 06:15:53;;;;;;;8.90;5.80;;;;;;;;;;5132861;27;20288;-80
2023/07/22 06:18:20;;;;;;;9.03;5.37;;;;;;;;;;5132954;27;20197;-79
2023/07/22 06:20:47;;;;;;;6.88;4.72;;;;;;;;;;5131928;27;20590;-79
2023/07/22 06:23:15;;;;;;;6.70;4.30;;;;;;;;;;5132373;27;20688;-80
2023/07/22 06:25:42;;;;;;;5.28;4.15;;;;;;;;;;5132466;27;20628;-80
2023/07/22 06:28:09;;;;;;;7.40;4.20;;;;;;;;;;5132304;27;20285;-79
2023/07/22 06:30:36;;;;;;;6.93;4.53;;;;;;;;;;5132270;27;20284;-80
2023/07/22 06:33:05;;;;;;;6.43;4.70;;;;;;;;;;5132455;27;20228;-79
2023/07/22 06:35:33;;;;;;;7.93;4.70;;;;;;;;;;5131941;27;20201;-80
2023/07/22 06:38:00;;;;;;;8.48;4.57;;;;;;;;;;5132162;27;20777;-79
2023/07/22 06:40:27;;;;;;;8.15;4.70;;;;;;;;;;5132314;27;20199;-80
2023/07/22 06:42:54;;;;;;;8.25;4.88;;;;;;;;;;5132252;27;20197;-80
2023/07/22 06:45:21;;;;;;;8.32;5.05;;;;;;;;;;5132100;28;20292;-80
2023/07/22 06:47:48;;;;;;;7.95;4.35;;;;;;;;;;5132531;28;20225;-80
2023/07/22 06:50:17;;;;;;;5.45;3.80;;;;;;;;;;5131720;27;20295;-81
2023/07/22 06:52:44;;;;;;;5.88;3.58;;;;;;;;;;5131896;28;20248;-80
2023/07/22 06:55:11;;;;;;;5.72;4.15;;;;;;;;;;5132198;27;20201;-80
2023/07/22 06:57:39;;;;;;;5.50;3.80;;;;;;;;;;5131760;28;20220;-80
2023/07/22 07:00:06;;;;;;;7.43;3.75;;;;;;;;;;5131684;28;20572;-80
2023/07/22 07:02:34;;;;;;;5.82;3.60;;;;;;;;;;5132561;28;20204;-80
2023/07/22 07:05:01;;;;;;;7.43;3.97;;;;;;;;;;5131453;28;20230;-80
2023/07/22 07:07:29;;;;;;;9.13;4.20;;;;;;;;;;5131993;28;20245;-79
2023/07/22 07:09:57;;;;;;;6.65;4.05;;;;;;;;;;5131944;27;20232;-80
2023/07/22 07:12:24;;;;;;;7.78;4.50;;;;;;;;;;5132125;27;20572;-80
2023/07/22 07:14:51;;;;;;;8.35;4.35;;;;;;;;;;5132042;27;20299;-79
2023/07/22 07:17:19;;;;;;;9.17;4.83;;;;;;;;;;5131711;28;20256;-79
2023/07/22 07:19:46;;;;;;;6.25;4.40;;;;;;;;;;5131398;28;20201;-79
2023/07/22 07:22:13;;;;;;;9.80;4.57;;;;;;;;;;5131795;28;20688;-79
2023/07/22 07:24:42;;;;;;;11.48;4.70;;;;;;;;;;5131702;27;20615;-79
2023/07/22 07:27:09;;;;;;;9.05;4.55;;;;;;;;;;5131518;28;20193;-79
2023/07/22 07:29:36;;;;;;;6.05;4.10;;;;;;;;;;5132164;27;20843;-79
2023/07/22 07:32:03;;;;;;;6.65;4.38;;;;;;;;;;5131982;28;20775;-78
2023/07/22 07:34:30;;;;;;;6.22;4.10;;;;;;;;;;5131644;28;20284;-79
2023/07/22 07:36:58;;;;;;;9.52;4.22;;;;;;;;;;5131595;28;20667;-79
2023/07/22 07:39:25;;;;;;;7.13;3.90;;;;;;;;;;5131734;27;20303;-79
2023/07/22 07:41:53;;;;;;;6.63;3.60;;;;;;;;;;5131717;28;20200;-79
2023/07/22 07:44:20;;;;;;;7.00;3.65;;;;;;;;;;5132114;28;20197;-79
2023/07/22 07:46:48;;;;;;;6.00;3.00;;;;;;;;;;5132165;27;20197;-79
2023/07/22 07:49:15;;;;;;;5.30;2.67;;;;;;;;;;5135114;27;20276;-79
2023/07/22 07:51:42;;;;;;;2.83;2.20;;;;;;;;;;5135230;27;20311;-78
2023/07/22 07:54:10;;;;;;;3.25;2.10;;;;;;;;;;5135074;27;20199;-79
2023/07/22 07:56:37;;;;;;;4.40;2.47;;;;;;;;;;5135077;27;20193;-79
2023/07/22 07:59:08;;;;;;;4.28;2.30;;;;;;;;;;5135578;27;20229;-79
2023/07/22 08:01:41;;;;;;;4.68;2.60;;;;;;;;;;5135026;27;20265;-82
2023/07/22 08:04:08;;;;;;;4.82;1.80;;;;;;;;;;5134793;27;20574;-82
2023/07/22 08:06:37;;;;;;;5.10;2.45;;;;;;;;;;5134005;27;20224;-81
2023/07/22 08:09:05;;;;;;;6.67;2.60;;;;;;;;;;4769957;27;10000168;-82
2023/07/22 08:11:32;;;;;;;3.95;2.08;;;;;;;;;;5131843;27;20423;-81
2023/07/22 08:13:59;;;;;;;3.35;1.92;;;;;;;;;;5121525;27;20205;-81
2023/07/22 08:16:28;;;;;;;3.55;1.80;;;;;;;;;;5121331;27;20216;-81
2023/07/22 08:18:55;;;;;;;4.90;1.70;;;;;;;;;;5132925;27;20315;-81
2023/07/22 08:21:22;;;;;;;3.58;1.70;;;;;;;;;;5135035;27;20288;-82
2023/07/22 08:23:49;;;;;;;3.78;1.88;;;;;;;;;;5135289;27;20189;-82
2023/07/22 08:26:20;;;;;;;3.33;1.80;;;;;;;;;;5134865;27;20587;-81
2023/07/22 08:28:47;;;;;;;4.25;1.90;;;;;;;;;;5134642;27;20215;-81
2023/07/22 08:31:15;;;;;;;2.70;2.00;;;;;;;;;;5134793;27;20284;-82
2023/07/22 08:33:44;;;;;;;4.60;2.50;;;;;;;;;;5134794;27;20291;-82
2023/07/22 08:36:12;;;;;;;4.13;2.30;;;;;;;;;;5134344;27;20244;-83
2023/07/22 08:38:39;;;;;;;4.05;2.35;;;;;;;;;;5134158;27;20316;-83
2023/07/22 08:41:06;;;;;;;3.72;2.35;;;;;;;;;;5134330;27;20277;-81
2023/07/22 08:43:35;;;;;;;4.90;1.80;;;;;;;;;;5134895;27;20284;-86
2023/07/22 08:46:02;;;;;;;3.80;1.90;;;;;;;;;;5134454;27;20624;-86
2023/07/22 08:48:32;;;;;;;3.58;2.00;;;;;;;;;;5127036;27;20280;-85
2023/07/22 08:51:06;;;;;;;2.72;1.95;;;;;;;;;;5112930;28;20267;-85
2023/07/22 08:53:34;;;;;;;5.07;2.42;;;;;;;;;;5116167;28;20198;-85
2023/07/22 08:56:02;;;;;;;3.50;2.20;;;;;;;;;;5116503;28;20191;-87
2023/07/22 08:58:30;;;;;;;2.97;2.20;;;;;;;;;;5116085;28;20246;-85
2023/07/22 09:00:57;;;;;;;4.00;2.47;;;;;;;;;;5126471;27;20228;-88
2023/07/22 09:03:25;;;;;;;3.88;2.40;;;;;;;;;;5136837;27;20224;-87
2023/07/22 09:05:53;;;;;;;4.85;2.65;;;;;;;;;;5135075;27;20197;-84
2023/07/22 09:08:22;;;;;;;4.85;2.58;;;;;;;;;;5133457;27;20193;-84
2023/07/22 09:10:49;;;;;;;4.85;2.40;;;;;;;;;;5133910;27;20221;-83
2023/07/22 09:13:17;;;;;;;3.25;2.20;;;;;;;;;;5121296;27;20201;-84
2023/07/22 09:15:44;;;;;;;3.35;2.50;;;;;;;;;;5122518;27;20229;-86
2023/07/22 09:18:11;;;;;;;2.90;2.35;;;;;;;;;;5131213;27;20269;-85
2023/07/22 09:20:38;;;;;;;5.10;2.78;;;;;;;;;;5134471;27;20308;-85
2023/07/22 09:23:06;;;;;;;3.92;3.15;;;;;;;;;;5131967;27;20285;-85
2023/07/22 09:25:35;;;;;;;4.45;2.85;;;;;;;;;;5136686;27;20193;-85
2023/07/22 09:28:02;;;;;;;4.25;2.97;;;;;;;;;;5134874;27;20224;-85
2023/07/22 09:30:31;;;;;;;3.17;2.70;;;;;;;;;;5132816;27;20307;-85
2023/07/22 09:32:59;;;;;;;3.92;3.33;;;;;;;;;;5133172;27;20201;-84
2023/07/22 09:35:28;;;;;;;5.68;3.20;;;;;;;;;;5129353;27;20269;-81
2023/07/22 09:37:56;;;;;;;4.85;2.88;;;;;;;;;;5132667;27;20215;-81
2023/07/22 09:40:23;;;;;;;3.00;2.60;;;;;;;;;;5142957;27;20200;-82
2023/07/22 09:42:53;;;;;;;5.68;2.97;;;;;;;;;;5147655;27;20662;-80
2023/07/22 09:45:21;;;;;;;4.45;2.90;;;;;;;;;;5133096;27;20258;-79
2023/07/22 09:47:49;;;;;;;4.10;2.90;;;;;;;;;;5133409;27;20193;-79
2023/07/22 09:50:17;;;;;;;3.97;3.17;;;;;;;;;;5132625;27;20189;-79
2023/07/22 09:52:46;;;;;;;3.95;2.72;;;;;;;;;;5132869;27;20224;-83
2023/07/22 09:55:13;;;;;;;5.50;2.95;;;;;;;;;;5145863;27;20189;-82
2023/07/22 09:57:45;;;;;;;3.40;3.00;;;;;;;;;;5133305;27;20292;-83
2023/07/22 10:00:15;;;;;;;4.93;3.03;;;;;;;;;;5133038;27;20653;-84
2023/07/22 10:02:43;;;;;;;3.67;2.92;;;;;;;;;;5133662;27;20218;-82
2023/07/22 10:05:13;;;;;;;5.15;3.00;;;;;;;;;;5133234;27;20288;-82
2023/07/22 10:07:42;;;;;;;4.30;3.05;;;;;;;;;;5126186;27;20297;-80
2023/07/22 10:10:09;;;;;;;6.22;3.22;;;;;;;;;;5132718;27;20226;-80
2023/07/22 10:12:37;;;;;;;4.40;3.22;;;;;;;;;;5119693;27;20334;-80
2023/07/22 10:15:06;;;;;;;6.18;2.88;;;;;;;;;;5112315;28;20280;-81
2023/07/22 10:17:35;;;;;;;4.43;3.00;;;;;;;;;;5130088;27;20225;-81
2023/07/22 10:20:05;;;;;;;5.15;2.97;;;;;;;;;;5112195;28;20198;-81
2023/07/22 10:22:34;;;;;;;4.22;2.72;;;;;;;;;;5112047;28;20198;-79
2023/07/22 10:25:01;;;;;;;5.82;3.15;;;;;;;;;;5111919;28;20312;-82
2023/07/22 10:27:29;;;;;;;4.78;2.72;;;;;;;;;;5119292;27;20628;-80
2023/07/22 10:29:57;;;;;;;4.30;2.97;;;;;;;;;;5131731;27;20233;-81
2023/07/22 10:32:24;;;;;;;2.83;2.50;;;;;;;;;;5132245;27;20280;-81
2023/07/22 10:34:52;;;;;;;4.43;2.55;;;;;;;;;;5131934;27;20681;-81
2023/07/22 10:37:24;;;;;;;5.35;3.05;;;;;;;;;;5119508;27;20197;-79
2023/07/22 10:39:51;;;;;;;5.30;3.13;;;;;;;;;;5122425;27;20189;-81
2023/07/22 10:42:25;;;;;;;4.05;3.17;;;;;;;;;;5131860;27;20571;-80
2023/07/22 10:44:52;;;;;;;4.80;2.90;;;;;;;;;;5131184;27;20722;-81
2023/07/22 10:47:33;;;;;;;3.70;3.00;;;;;;;;;;5122935;27;20296;-81
2023/07/22 10:50:07;;;;;;;4.28;3.05;;;;;;;;;;5111770;28;20200;-81
2023/07/22 10:52:42;;;;;;;5.18;3.30;;;;;;;;;;5129481;28;20243;-81
2023/07/22 10:55:15;;;;;;;3.78;3.33;;;;;;;;;;5125914;28;20257;-80
2023/07/22 10:57:49;;;;;;;3.72;2.95;;;;;;;;;;5111175;28;20313;-80
2023/07/22 11:00:20;;;;;;;4.90;3.25;;;;;;;;;;5111940;28;20203;-82
2023/07/22 11:02:49;;;;;;;5.15;3.05;;;;;;;;;;5125308;27;20582;-81
2023/07/22 11:05:19;;;;;;;3.42;3.08;;;;;;;;;;5131083;27;20200;-81
2023/07/22 11:07:47;;;;;;;3.75;3.35;;;;;;;;;;5130704;28;20222;-81
2023/07/22 11:10:16;;;;;;;3.40;3.08;;;;;;;;;;5131677;28;20568;-81
2023/07/22 11:12:45;;;;;;;5.93;3.38;;;;;;;;;;5115215;28;20814;-81
2023/07/22 11:15:12;;;;;;;6.63;3.40;;;;;;;;;;5111849;28;20194;-81
2023/07/22 11:17:39;;;;;;;5.13;3.22;;;;;;;;;;5131467;28;20288;-81
2023/07/22 11:20:07;;;;;;;6.22;3.92;;;;;;;;;;5131389;27;20619;-81
2023/07/22 11:22:36;;;;;;;5.45;3.45;;;;;;;;;;5120003;27;20225;-81
2023/07/22 11:25:03;;;;;;;4.40;3.15;;;;;;;;;;5115571;28;20250;-81
2023/07/22 11:27:30;;;;;;;4.32;3.40;;;;;;;;;;5114540;28;20574;-81
2023/07/22 11:29:59;;;;;;;5.22;3.08;;;;;;;;;;5132749;27;20236;-80
2023/07/22 11:32:28;;;;;;;5.15;3.50;;;;;;;;;;5133646;27;20232;-81
2023/07/22 11:34:55;;;;;;;5.28;3.33;;;;;;;;;;5132694;27;20208;-80
2023/07/22 11:37:23;;;;;;;3.85;3.40;;;;;;;;;;5134859;27;20199;-81
2023/07/22 11:39:51;;;;;;;4.32;3.20;;;;;;;;;;5132874;27;20231;-80
2023/07/22 11:42:18;;;;;;;3.75;3.33;;;;;;;;;;5133266;27;20284;-80
2023/07/22 11:44:46;;;;;;;6.25;3.17;;;;;;;;;;5133404;27;20289;-80
2023/07/22 11:47:13;;;;;;;3.30;3.00;;;;;;;;;;5136047;27;20193;-80
2023/07/22 11:49:41;;;;;;;7.05;3.55;;;;;;;;;;5130775;27;20193;-80
2023/07/22 11:52:09;;;;;;;8.23;3.20;;;;;;;;;;5129997;27;20235;-81
2023/07/22 11:54:36;;;;;;;3.78;2.58;;;;;;;;;;5129169;27;20201;-79
2023/07/22 11:57:15;;;;;;;4.40;2.78;;;;;;;;;;5132001;27;20680;-79
2023/07/22 11:59:45;;;;;;;4.55;2.90;;;;;;;;;;5131271;27;20734;-78
2023/07/22 12:02:14;;;;;;;3.55;2.55;;;;;;;;;;5132550;27;20679;-79
2023/07/22 12:04:41;;;;;;;7.15;2.80;;;;;;;;;;5132179;27;20193;-79
2023/07/22 12:07:22;;;;;;;2.88;2.40;;;;;;;;;;5142113;27;20287;-80
2023/07/22 12:09:50;;;;;;;2.80;2.50;;;;;;;;;;5136881;27;20288;-80
2023/07/22 12:12:18;;;;;;;4.13;2.45;;;;;;;;;;5134787;27;20189;-79
2023/07/22 12:14:45;;;;;;;4.03;2.55;;;;;;;;;;5129112;27;20632;-79
2023/07/22 12:17:12;;;;;;;3.92;2.17;;;;;;;;;;5123628;27;20237;-78
2023/07/22 12:19:40;;;;;;;8.10;2.10;;;;;;;;;;5133255;27;20221;-79
2023/07/22 12:22:08;;;;;;;2.35;2.00;;;;;;;;;;5132945;27;20662;-80
2023/07/22 12:24:35;;;;;;;2.30;2.10;;;;;;;;;;5133460;27;20201;-82
2023/07/22 12:27:03;;;;;;;3.25;2.10;;;;;;;;;;5122510;27;20748;-81
2023/07/22 12:29:31;;;;;;;3.13;2.13;;;;;;;;;;5135030;27;20193;-81
2023/07/22 12:31:58;;;;;;;3.78;2.30;;;;;;;;;;5134464;27;20406;-82
2023/07/22 12:34:26;;;;;;;3.42;2.38;;;;;;;;;;5135348;27;20930;-82
2023/07/22 12:36:53;;;;;;;2.90;2.00;;;;;;;;;;5135144;27;20228;-82
2023/07/22 12:39:20;;;;;;;4.07;1.90;;;;;;;;;;5134728;27;20236;-81
2023/07/22 12:41:47;;;;;;;2.28;1.92;;;;;;;;;;5135432;27;20665;-82
2023/07/22 12:44:15;;;;;;;4.70;2.50;;;;;;;;;;5134649;27;20320;-82
2023/07/22 12:46:43;;;;;;;2.17;1.83;;;;;;;;;;5135156;27;20296;-81
2023/07/22 12:49:11;;;;;;;2.40;1.70;;;;;;;;;;5135136;27;20193;-81
2023/07/22 12:51:38;;;;;;;3.75;2.08;;;;;;;;;;5134768;27;20235;-81
2023/07/22 12:54:05;;;;;;;3.60;1.70;;;;;;;;;;5134127;27;20193;-82
2023/07/22 12:56:32;;;;;;;4.85;1.90;;;;;;;;;;5134632;27;20634;-81
2023/07/22 12:59:00;;;;;;;2.53;1.55;;;;;;;;;;5134814;27;20319;-82
2023/07/22 13:01:27;;;;;;;2.47;1.83;;;;;;;;;;5134397;27;20568;-80
2023/07/22 13:03:55;;;;;;;4.20;1.70;;;;;;;;;;5134512;27;20668;-81
2023/07/22 13:06:23;;;;;;;3.03;1.50;;;;;;;;;;5135166;27;20197;-82
2023/07/22 13:08:50;;;;;;;3.33;1.63;;;;;;;;;;5133733;27;20288;-82
2023/07/22 13:11:17;;;;;;;2.10;1.60;;;;;;;;;;5134357;27;20624;-81
2023/07/22 13:13:44;;;;;;;2.42;1.60;;;;;;;;;;5134060;27;20216;-82
2023/07/22 13:16:12;;;;;;;3.33;1.92;;;;;;;;;;5134520;27;20287;-82
2023/07/22 13:18:39;;;;;;;2.60;1.60;;;;;;;;;;5135142;27;20252;-82
2023/07/22 13:21:08;;;;;;;2.13;1.73;;;;;;;;;;5134606;27;20200;-81
2023/07/22 13:23:35;;;;;;;3.50;1.70;;;;;;;;;;5134498;27;20205;-82
2023/07/22 13:26:02;;;;;;;2.25;1.90;;;;;;;;;;5134224;27;20238;-82
2023/07/22 13:28:29;;;;;;;2.55;1.40;;;;;;;;;;5134341;27;20193;-81
2023/07/22 13:30:56;;;;;;;4.70;1.90;;;;;;;;;;5134158;27;20207;-82
2023/07/22 13:33:24;;;;;;;3.47;1.60;;;;;;;;;;5134484;27;20225;-82
2023/07/22 13:35:51;;;;;;;2.13;1.75;;;;;;;;;;5134183;27;20681;-82
2023/07/22 13:38:20;;;;;;;2.58;1.60;;;;;;;;;;5134209;27;20296;-81
2023/07/22 13:40:48;;;;;;;2.33;1.63;;;;;;;;;;5133834;27;20726;-81
2023/07/22 13:43:15;;;;;;;1.83;1.60;;;;;;;;;;5131981;27;20254;-81
2023/07/22 13:45:42;;;;;;;2.75;1.92;;;;;;;;;;5128662;27;20247;-81
2023/07/22 13:48:11;;;;;;;4.03;2.05;;;;;;;;;;5129645;27;20667;-83
2023/07/22 13:50:39;;;;;;;5.93;2.50;;;;;;;;;;5124674;27;20205;-83
2023/07/22 13:53:07;;;;;;;3.10;2.25;;;;;;;;;;5148902;27;20197;-81
2023/07/22 13:55:35;;;;;;;3.45;2.47;;;;;;;;;;5142848;27;20224;-82
2023/07/22 13:58:02;;;;;;;3.33;2.40;;;;;;;;;;5141019;27;20193;-81
2023/07/22 14:00:30;;;;;;;3.05;2.75;;;;;;;;;;5137536;27;20224;-84
2023/07/22 14:02:58;;;;;;;3.25;2.53;;;;;;;;;;5134739;27;20248;-83
2023/07/22 14:05:26;;;;;;;4.85;2.45;;;;;;;;;;5132905;27;20201;-82
2023/07/22 14:07:53;;;;;;;4.38;2.95;;;;;;;;;;5130716;27;20198;-83
2023/07/22 14:10:21;;;;;;;3.72;2.72;;;;;;;;;;5149675;27;20200;-82
2023/07/22 14:12:49;;;;;;;3.15;2.83;;;;;;;;;;5154680;27;20659;-82
2023/07/22 14:15:16;;;;;;;3.10;2.45;;;;;;;;;;5154238;27;20227;-84
2023/07/22 14:17:44;;;;;;;2.90;2.60;;;;;;;;;;5134332;27;20197;-84
2023/07/22 14:20:12;;;;;;;2.97;2.67;;;;;;;;;;5133689;27;20220;-83
2023/07/22 14:22:39;;;;;;;3.17;2.50;;;;;;;;;;5133933;27;20733;-83
2023/07/22 14:25:07;;;;;;;4.35;2.70;;;;;;;;;;5133497;27;20236;-83
2023/07/22 14:27:34;;;;;;;4.28;2.53;;;;;;;;;;5133854;27;20242;-83
2023/07/22 14:30:04;;;;;;;4.30;2.45;;;;;;;;;;5133826;27;20257;-83
2023/07/22 14:32:31;;;;;;;4.05;2.35;;;;;;;;;;5132952;27;20227;-81
2023/07/22 14:34:59;;;;;;;5.55;2.70;;;;;;;;;;5132598;27;20233;-82
2023/07/22 14:37:26;;;;;;;7.40;2.75;;;;;;;;;;5133092;27;20193;-81
2023/07/22 14:39:53;;;;;;;5.57;2.75;;;;;;;;;;5148127;27;20224;-83
2023/07/22 14:42:20;;;;;;;5.82;2.50;;;;;;;;;;5136736;27;20280;-82
2023/07/22 14:44:47;;;;;;;3.13;2.30;;;;;;;;;;5149257;27;20624;-82